Time;durP1;ratioP1;P1;durP2;ratioP2;P2;SDS_P1;SDS_P2;PMS_P1;PMS_P2;Temp;Humidity;BMP_temperature;BMP_pressure;BME280_temperature;BME280_humidity;BME280_pressure;Samples;Min_cycle;Max_cycle;Signal;HPM_P1;HPM_P2
2022/03/15 00:01:03;;;;;;;14.73;11.80;;;7.50;99.90;;;;;;4990370;28;19971;-54
2022/03/15 00:03:48;;;;;;;16.88;12.38;;;7.40;99.90;;;;;;4988215;28;20038;-53
2022/03/15 00:06:34;;;;;;;14.88;11.90;;;7.40;99.90;;;;;;4989682;28;20078;-54
2022/03/15 00:09:18;;;;;;;14.82;11.98;;;7.40;99.90;;;;;;4993603;28;20045;-48
2022/03/15 00:12:05;;;;;;;14.02;12.13;;;7.40;99.90;;;;;;4987936;28;20073;-53
2022/03/15 00:14:50;;;;;;;17.77;11.70;;;7.40;99.90;;;;;;4978061;28;20458;-48
2022/03/15 00:17:39;;;;;;;14.82;12.57;;;7.40;99.90;;;;;;4995349;28;20041;-50
2022/03/15 00:20:24;;;;;;;12.93;11.52;;;7.40;99.90;;;;;;4994768;28;20685;-52
2022/03/15 00:23:08;;;;;;;16.02;12.38;;;7.30;99.90;;;;;;4995681;28;20050;-53
2022/03/15 00:25:53;;;;;;;14.50;12.05;;;7.30;99.90;;;;;;4994880;28;20081;-52
2022/03/15 00:28:37;;;;;;;14.23;11.57;;;7.40;99.90;;;;;;4995456;28;20577;-49
2022/03/15 00:31:21;;;;;;;19.30;13.18;;;7.40;99.90;;;;;;4995291;28;20092;-54
2022/03/15 00:34:06;;;;;;;16.77;13.18;;;7.40;99.90;;;;;;4994510;28;20045;-49
2022/03/15 00:36:50;;;;;;;14.30;11.77;;;7.30;99.90;;;;;;4994481;28;20101;-52
2022/03/15 00:39:34;;;;;;;15.63;11.82;;;7.30;99.90;;;;;;4994378;28;20041;-54
2022/03/15 00:42:18;;;;;;;13.93;11.67;;;7.20;99.90;;;;;;4994333;28;20034;-52
2022/03/15 00:45:04;;;;;;;16.08;12.30;;;7.10;99.90;;;;;;4994522;28;20041;-53
2022/03/15 00:47:53;;;;;;;17.08;11.60;;;7.10;99.90;;;;;;4994620;28;20032;-54
2022/03/15 00:50:40;;;;;;;13.02;10.90;;;7.10;99.90;;;;;;4978924;28;20084;-55
2022/03/15 00:53:24;;;;;;;13.45;10.50;;;7.20;99.90;;;;;;4990075;28;20041;-50
2022/03/15 00:56:08;;;;;;;13.40;10.35;;;7.00;99.90;;;;;;4993394;28;20211;-51
2022/03/15 00:58:52;;;;;;;12.02;10.73;;;7.00;99.90;;;;;;4994841;28;20041;-49
2022/03/15 01:01:37;;;;;;;13.43;10.70;;;6.90;99.90;;;;;;4994214;28;20065;-52
2022/03/15 01:04:21;;;;;;;15.85;10.80;;;6.80;99.90;;;;;;5002380;28;20100;-51
2022/03/15 01:07:05;;;;;;;14.68;10.40;;;6.80;99.90;;;;;;4992045;28;20085;-54
2022/03/15 01:09:49;;;;;;;12.95;10.45;;;6.70;99.90;;;;;;4993902;28;20037;-50
2022/03/15 01:12:33;;;;;;;14.18;10.80;;;6.80;99.90;;;;;;4993513;28;20045;-51
2022/03/15 01:15:17;;;;;;;16.05;11.43;;;6.70;99.90;;;;;;4993884;28;20541;-50
2022/03/15 01:18:02;;;;;;;13.43;9.85;;;6.70;99.90;;;;;;4993163;28;20093;-54
2022/03/15 01:20:46;;;;;;;13.52;10.48;;;6.70;99.90;;;;;;5006675;28;20045;-53
2022/03/15 01:23:31;;;;;;;13.07;10.63;;;6.60;99.90;;;;;;4992048;28;20068;-54
2022/03/15 01:26:15;;;;;;;;;;;6.60;99.90;;;;;;4994234;28;20114;-50
2022/03/15 01:29:01;;;;;;;11.35;9.60;;;6.60;99.90;;;;;;4993874;28;19960;-55
2022/03/15 01:31:46;;;;;;;11.70;9.43;;;6.50;99.90;;;;;;4993775;28;20045;-54
2022/03/15 01:34:30;;;;;;;12.70;9.40;;;6.50;99.90;;;;;;4993792;28;20121;-54
2022/03/15 01:37:15;;;;;;;11.63;8.35;;;6.50;99.90;;;;;;4993445;28;20626;-53
2022/03/15 01:39:59;;;;;;;12.90;8.82;;;6.60;99.90;;;;;;4993524;28;20037;-56
2022/03/15 01:42:44;;;;;;;11.07;9.23;;;6.70;99.90;;;;;;4991463;28;20061;-51
2022/03/15 01:45:34;;;;;;;9.73;8.57;;;6.60;99.90;;;;;;4992981;28;20049;-54
2022/03/15 01:48:18;;;;;;;10.57;8.95;;;6.70;99.90;;;;;;5005946;28;20037;-48
2022/03/15 01:51:03;;;;;;;10.68;8.98;;;6.70;99.90;;;;;;4993276;28;20426;-52
2022/03/15 01:53:47;;;;;;;11.32;9.38;;;6.80;99.90;;;;;;4992307;28;20402;-49
2022/03/15 01:56:32;;;;;;;11.05;9.07;;;6.80;99.90;;;;;;4993267;28;20320;-50
2022/03/15 01:59:17;;;;;;;11.27;9.38;;;6.80;99.90;;;;;;4992460;28;20069;-48
2022/03/15 02:02:02;;;;;;;12.35;9.55;;;6.70;99.90;;;;;;4992629;28;20038;-56
2022/03/15 02:04:46;;;;;;;10.38;8.60;;;6.60;99.90;;;;;;4993580;28;20669;-49
2022/03/15 02:07:31;;;;;;;11.10;9.73;;;6.60;99.90;;;;;;4991793;28;20153;-52
2022/03/15 02:10:15;;;;;;;12.00;9.40;;;6.60;99.90;;;;;;4973987;28;20046;-48
2022/03/15 02:12:59;;;;;;;10.48;9.15;;;6.60;99.90;;;;;;5004903;28;20584;-50
2022/03/15 02:15:42;;;;;;;11.43;9.27;;;6.60;99.90;;;;;;4992973;28;20037;-49
2022/03/15 02:18:27;;;;;;;10.13;8.90;;;6.70;99.90;;;;;;4973267;28;20034;-52
2022/03/15 02:21:11;;;;;;;12.57;9.27;;;6.70;99.90;;;;;;4989345;28;20029;-49
2022/03/15 02:23:56;;;;;;;12.20;8.45;;;6.60;99.90;;;;;;4973711;28;20073;-50
2022/03/15 02:26:40;;;;;;;9.80;8.43;;;6.70;99.90;;;;;;4990667;28;20157;-55
2022/03/15 02:29:24;;;;;;;13.10;9.32;;;6.70;99.90;;;;;;4991871;28;20165;-51
2022/03/15 02:32:09;;;;;;;65.93;37.75;;;6.70;99.90;;;;;;4992109;28;20049;-52
2022/03/15 02:34:53;;;;;;;96.38;49.65;;;6.70;99.90;;;;;;4992181;28;20084;-52
2022/03/15 02:37:37;;;;;;;63.92;34.40;;;6.70;99.90;;;;;;4991959;28;20555;-52
2022/03/15 02:40:21;;;;;;;19.00;12.10;;;6.70;99.90;;;;;;4992185;28;20042;-54
2022/03/15 02:43:06;;;;;;;30.73;19.27;;;6.90;99.90;;;;;;4972699;28;20265;-54
2022/03/15 02:45:50;;;;;;;49.58;28.60;;;6.80;99.90;;;;;;4986577;28;20042;-52
2022/03/15 02:48:35;;;;;;;60.35;35.72;;;6.70;99.90;;;;;;4992745;28;20073;-55
2022/03/15 02:51:19;;;;;;;30.38;20.23;;;6.70;99.90;;;;;;4992449;28;20409;-54
2022/03/15 02:54:08;;;;;;;16.02;12.43;;;6.70;99.90;;;;;;4991387;28;20053;-53
2022/03/15 02:56:53;;;;;;;14.45;10.95;;;6.70;99.90;;;;;;4999502;28;20045;-49
2022/03/15 02:59:39;;;;;;;12.70;10.75;;;6.70;99.90;;;;;;4988602;28;20085;-52
2022/03/15 03:02:23;;;;;;;13.80;10.27;;;6.70;99.90;;;;;;4992161;28;20057;-52
2022/03/15 03:05:08;;;;;;;14.00;10.32;;;6.70;99.90;;;;;;4992701;28;20045;-49
2022/03/15 03:07:52;;;;;;;12.20;9.88;;;6.70;99.90;;;;;;4992369;28;20065;-55
2022/03/15 03:10:37;;;;;;;12.73;10.40;;;6.70;99.90;;;;;;4991730;28;20628;-48
2022/03/15 03:13:27;;;;;;;13.30;10.68;;;6.60;99.90;;;;;;4991508;28;20084;-52
2022/03/15 03:16:13;;;;;;;15.38;10.95;;;6.60;99.90;;;;;;4992085;28;20655;-48
2022/03/15 03:19:00;;;;;;;14.80;11.73;;;6.50;99.90;;;;;;4992776;28;20045;-49
2022/03/15 03:21:45;;;;;;;13.15;11.00;;;6.40;99.90;;;;;;5001742;28;20038;-55
2022/03/15 03:24:29;;;;;;;17.02;12.05;;;6.30;99.90;;;;;;4991887;28;20057;-49
2022/03/15 03:27:14;;;;;;;20.23;12.30;;;6.30;99.90;;;;;;4992038;28;20181;-52
2022/03/15 03:29:59;;;;;;;17.95;12.38;;;6.40;99.90;;;;;;4991951;28;20041;-50
2022/03/15 03:32:43;;;;;;;13.82;10.43;;;6.30;99.90;;;;;;4991454;28;20066;-52
2022/03/15 03:35:28;;;;;;;15.10;10.25;;;6.30;99.90;;;;;;4990894;28;20037;-54
2022/03/15 03:38:12;;;;;;;;;;;6.30;99.90;;;;;;4992505;28;20560;-53
2022/03/15 03:40:57;;;;;;;12.13;9.73;;;6.20;99.90;;;;;;4993464;28;19960;-51
2022/03/15 03:43:41;;;;;;;12.55;10.73;;;6.10;99.90;;;;;;4995574;28;20390;-55
2022/03/15 03:46:27;;;;;;;14.65;10.45;;;6.20;99.90;;;;;;4981461;28;20406;-52
2022/03/15 03:49:11;;;;;;;15.00;9.57;;;6.00;99.90;;;;;;4995587;28;20414;-51
2022/03/15 03:51:57;;;;;;;14.35;10.68;;;5.90;99.90;;;;;;4982527;28;20045;-50
2022/03/15 03:54:41;;;;;;;13.07;10.02;;;5.90;99.90;;;;;;4996183;28;20088;-51
2022/03/15 03:57:26;;;;;;;11.70;9.88;;;6.00;99.90;;;;;;4995340;28;20130;-48
2022/03/15 04:00:10;;;;;;;13.43;10.43;;;6.00;99.90;;;;;;4995480;28;20124;-50
2022/03/15 04:02:57;;;;;;;11.80;9.77;;;6.00;99.90;;;;;;4994692;28;20410;-49
2022/03/15 04:05:41;;;;;;;30.02;18.45;;;6.00;99.90;;;;;;4994646;28;20120;-50
2022/03/15 04:08:25;;;;;;;19.00;13.70;;;6.00;99.90;;;;;;4995600;28;20065;-52
2022/03/15 04:11:10;;;;;;;11.80;10.57;;;5.90;99.90;;;;;;4996146;28;20084;-51
2022/03/15 04:13:54;;;;;;;14.70;10.40;;;6.00;99.90;;;;;;4995878;28;20065;-52
2022/03/15 04:16:40;;;;;;;13.18;10.07;;;5.90;99.90;;;;;;4996588;28;20487;-50
2022/03/15 04:19:25;;;;;;;11.25;9.68;;;5.90;99.90;;;;;;4995590;28;20141;-54
2022/03/15 04:22:09;;;;;;;11.60;9.40;;;5.90;99.90;;;;;;5006997;28;20042;-49
2022/03/15 04:24:53;;;;;;;11.35;9.05;;;5.80;99.90;;;;;;4995395;28;20042;-52
2022/03/15 04:27:37;;;;;;;12.38;9.38;;;5.80;99.90;;;;;;4995188;28;20495;-51
2022/03/15 04:30:24;;;;;;;10.80;9.35;;;5.80;99.90;;;;;;4995061;28;20085;-50
2022/03/15 04:33:08;;;;;;;10.20;8.93;;;5.80;99.90;;;;;;4974806;28;20578;-52
2022/03/15 04:35:52;;;;;;;11.63;8.75;;;5.80;99.90;;;;;;4991160;28;20513;-49
2022/03/15 04:38:36;;;;;;;9.93;8.55;;;5.80;99.90;;;;;;4994651;28;20044;-49
2022/03/15 04:41:20;;;;;;;14.00;10.20;;;5.70;99.90;;;;;;4981180;28;20092;-52
2022/03/15 04:44:08;;;;;;;9.52;8.27;;;5.80;99.90;;;;;;5006531;28;20269;-50
2022/03/15 04:46:53;;;;;;;9.00;7.38;;;5.70;99.90;;;;;;4994550;28;20089;-52
2022/03/15 04:49:37;;;;;;;7.93;7.13;;;5.70;99.90;;;;;;4994575;28;20050;-51
2022/03/15 04:52:21;;;;;;;10.13;8.40;;;5.60;99.90;;;;;;4993755;28;20057;-53
2022/03/15 04:55:06;;;;;;;10.00;7.90;;;5.60;99.90;;;;;;4994756;28;20053;-55
2022/03/15 04:57:50;;;;;;;;;;;5.50;99.90;;;;;;4994423;28;20100;-50
2022/03/15 05:00:34;;;;;;;9.07;7.60;;;5.50;99.90;;;;;;4994405;28;19968;-53
2022/03/15 05:03:18;;;;;;;8.70;7.80;;;5.50;99.90;;;;;;4993448;28;20033;-52
2022/03/15 05:06:03;;;;;;;10.38;8.27;;;5.50;99.90;;;;;;4994356;28;20057;-52
2022/03/15 05:08:48;;;;;;;9.65;7.93;;;5.50;99.90;;;;;;4994085;28;20033;-53
2022/03/15 05:11:34;;;;;;;10.45;8.38;;;5.40;99.90;;;;;;4993917;28;20502;-54
2022/03/15 05:14:18;;;;;;;9.93;7.95;;;5.40;99.90;;;;;;4983463;28;20101;-53
2022/03/15 05:17:03;;;;;;;10.43;7.85;;;5.40;99.90;;;;;;4994162;28;20044;-51
2022/03/15 05:19:47;;;;;;;10.68;9.57;;;5.40;99.90;;;;;;4993787;28;20512;-52
2022/03/15 05:22:34;;;;;;;12.13;9.17;;;5.30;99.90;;;;;;4993126;28;20109;-53
2022/03/15 05:25:18;;;;;;;10.48;8.25;;;5.30;99.90;;;;;;4993463;28;20269;-52
2022/03/15 05:28:03;;;;;;;9.65;8.02;;;5.30;99.90;;;;;;4993468;28;20061;-51
2022/03/15 05:30:47;;;;;;;10.05;8.88;;;5.30;99.90;;;;;;4993584;28;20042;-50
2022/03/15 05:33:31;;;;;;;10.98;9.27;;;5.30;99.90;;;;;;4973356;28;20101;-53
2022/03/15 05:36:15;;;;;;;11.10;9.07;;;5.30;99.90;;;;;;4985115;28;20473;-49
2022/03/15 05:38:59;;;;;;;10.68;8.35;;;5.30;99.90;;;;;;4992822;28;20053;-51
2022/03/15 05:41:44;;;;;;;10.63;8.93;;;5.40;99.90;;;;;;4993067;28;20118;-51
2022/03/15 05:44:28;;;;;;;10.30;8.33;;;5.40;99.90;;;;;;4993055;28;20088;-51
2022/03/15 05:47:12;;;;;;;12.32;9.07;;;5.40;99.90;;;;;;4993149;28;20033;-51
2022/03/15 05:49:56;;;;;;;9.87;8.03;;;5.40;99.90;;;;;;4993160;28;20049;-55
2022/03/15 05:52:40;;;;;;;9.80;8.27;;;5.40;99.90;;;;;;4990154;28;20038;-54
2022/03/15 05:55:24;;;;;;;11.65;9.65;;;5.40;99.90;;;;;;4988169;28;20042;-50
2022/03/15 05:58:09;;;;;;;10.60;9.50;;;5.40;99.90;;;;;;4998212;28;20133;-54
2022/03/15 06:00:55;;;;;;;13.30;10.60;;;5.40;99.90;;;;;;4990912;28;20088;-54
2022/03/15 06:03:39;;;;;;;13.43;10.23;;;5.30;99.90;;;;;;4991846;28;20041;-53
2022/03/15 06:06:24;;;;;;;12.40;9.80;;;5.30;99.90;;;;;;4993249;28;20041;-53
2022/03/15 06:09:08;;;;;;;;;;;5.30;99.90;;;;;;4992657;28;20637;-54
2022/03/15 06:11:54;;;;;;;15.00;10.40;;;5.30;99.90;;;;;;4992373;28;20277;-56
2022/03/15 06:14:37;;;;;;;;;;;5.30;99.90;;;;;;4992890;28;20033;-52
2022/03/15 06:17:22;;;;;;;13.60;10.20;;;5.40;99.90;;;;;;4994732;28;20432;-51
2022/03/15 06:20:06;;;;;;;12.05;9.57;;;5.30;99.90;;;;;;4991785;28;20193;-53
2022/03/15 06:22:51;;;;;;;15.57;11.73;;;5.30;99.90;;;;;;5004733;28;20042;-56
2022/03/15 06:25:35;;;;;;;;;;;5.50;99.90;;;;;;4992969;28;20096;-51
2022/03/15 06:28:19;;;;;;;11.55;9.93;;;5.50;99.90;;;;;;4992876;28;20059;-49
2022/03/15 06:31:04;;;;;;;15.20;10.68;;;5.60;99.90;;;;;;4986323;28;20042;-52
2022/03/15 06:33:49;;;;;;;11.55;9.57;;;5.70;99.90;;;;;;4985456;28;20542;-52
2022/03/15 06:36:36;;;;;;;12.63;9.97;;;5.80;99.90;;;;;;4992522;28;20109;-54
2022/03/15 06:39:20;;;;;;;12.93;9.88;;;5.80;99.90;;;;;;4992436;28;20041;-53
2022/03/15 06:42:09;;;;;;;12.07;9.65;;;5.80;99.90;;;;;;4991458;28;20041;-52
2022/03/15 06:44:53;;;;;;;12.32;9.80;;;5.90;99.90;;;;;;4990793;28;20049;-51
2022/03/15 06:47:38;;;;;;;13.18;10.20;;;5.90;99.90;;;;;;4989208;28;20037;-56
2022/03/15 06:50:22;;;;;;;10.50;9.38;;;6.00;99.90;;;;;;4988135;28;20037;-56
2022/03/15 06:53:07;;;;;;;13.93;9.55;;;6.10;99.90;;;;;;4991490;28;20068;-55
2022/03/15 06:55:51;;;;;;;12.75;9.48;;;6.10;99.90;;;;;;4982048;28;20045;-52
2022/03/15 06:58:36;;;;;;;12.40;9.45;;;6.10;99.90;;;;;;4988187;28;20143;-51
2022/03/15 07:01:20;;;;;;;13.43;10.38;;;6.10;99.90;;;;;;4987039;28;20085;-53
2022/03/15 07:04:04;;;;;;;13.27;9.75;;;6.20;99.90;;;;;;4987162;28;20037;-54
2022/03/15 07:06:48;;;;;;;13.70;10.18;;;6.20;99.90;;;;;;4984014;28;20041;-53
2022/03/15 07:09:32;;;;;;;11.50;10.30;;;6.20;99.90;;;;;;4992153;28;20033;-52
2022/03/15 07:12:17;;;;;;;13.70;10.43;;;6.30;99.90;;;;;;4991117;28;20441;-52
2022/03/15 07:15:03;;;;;;;11.35;9.70;;;6.30;99.90;;;;;;5003469;28;20402;-51
2022/03/15 07:17:55;;;;;;;15.60;11.95;;;6.40;99.90;;;;;;4991881;28;20092;-53
2022/03/15 07:20:39;;;;;;;14.10;11.90;;;6.40;99.90;;;;;;4991147;28;20497;-56
2022/03/15 07:23:24;;;;;;;13.07;10.30;;;6.40;99.90;;;;;;4989398;28;20041;-54
2022/03/15 07:26:08;;;;;;;15.23;11.25;;;6.40;99.90;;;;;;4991828;28;20090;-53
2022/03/15 07:28:52;;;;;;;14.10;11.93;;;6.40;99.90;;;;;;4991831;28;20088;-55
2022/03/15 07:31:36;;;;;;;15.57;12.05;;;6.40;99.90;;;;;;4992195;28;20154;-56
2022/03/15 07:34:20;;;;;;;16.17;11.80;;;6.50;99.90;;;;;;4990912;28;20069;-52
2022/03/15 07:37:04;;;;;;;14.93;12.27;;;6.50;99.90;;;;;;4992147;28;20143;-53
2022/03/15 07:39:48;;;;;;;14.73;12.88;;;6.70;99.90;;;;;;4989949;28;20053;-50
2022/03/15 07:42:33;;;;;;;17.38;13.63;;;6.70;99.90;;;;;;4988561;28;20518;-50
2022/03/15 07:45:17;;;;;;;20.92;13.70;;;6.80;99.90;;;;;;4988994;28;20045;-53
2022/03/15 07:48:01;;;;;;;16.52;13.15;;;6.80;99.90;;;;;;4982508;28;20078;-51
2022/03/15 07:50:46;;;;;;;19.27;14.20;;;6.90;99.90;;;;;;4987481;28;20061;-55
2022/03/15 07:53:30;;;;;;;;;;;6.80;99.90;;;;;;4991030;28;20036;-54
2022/03/15 07:56:14;;;;;;;19.67;14.20;;;6.90;99.90;;;;;;4990689;28;19920;-53
2022/03/15 07:58:58;;;;;;;18.25;14.57;;;6.90;99.90;;;;;;4988690;28;20218;-50
2022/03/15 08:01:42;;;;;;;17.80;14.40;;;7.00;99.90;;;;;;4991043;28;20045;-49
2022/03/15 08:04:26;;;;;;;38.03;25.20;;;7.00;99.90;;;;;;4983502;28;20045;-52
2022/03/15 08:07:10;;;;;;;31.30;20.98;;;7.20;99.90;;;;;;4984727;28;20037;-51
2022/03/15 08:09:54;;;;;;;25.83;20.73;;;7.20;99.90;;;;;;4988091;28;20109;-53
2022/03/15 08:12:40;;;;;;;20.40;17.15;;;7.10;99.90;;;;;;4990955;28;20037;-54
2022/03/15 08:15:25;;;;;;;22.67;17.05;;;7.10;99.90;;;;;;4991795;28;20122;-53
2022/03/15 08:18:08;;;;;;;29.20;23.38;;;7.20;99.90;;;;;;4988812;28;20110;-48
2022/03/15 08:20:53;;;;;;;43.40;26.97;;;7.30;99.90;;;;;;4988817;28;20041;-50
2022/03/15 08:23:37;;;;;;;25.20;20.75;;;7.40;99.90;;;;;;4985590;28;20041;-50
2022/03/15 08:26:21;;;;;;;23.30;16.08;;;7.50;99.90;;;;;;4992050;28;20048;-53
2022/03/15 08:29:06;;;;;;;21.17;17.37;;;7.60;99.90;;;;;;4992694;28;20747;-51
2022/03/15 08:31:51;;;;;;;23.27;16.95;;;7.60;99.90;;;;;;4996978;28;20454;-53
2022/03/15 08:34:37;;;;;;;20.23;16.40;;;7.70;99.90;;;;;;5007527;28;20052;-50
2022/03/15 08:37:21;;;;;;;23.83;17.20;;;7.80;99.90;;;;;;4996464;28;20057;-54
2022/03/15 08:40:06;;;;;;;51.43;32.23;;;7.70;99.90;;;;;;4975013;28;20585;-54
2022/03/15 08:42:51;;;;;;;27.25;19.92;;;7.70;99.90;;;;;;5001961;28;20220;-49
2022/03/15 08:45:36;;;;;;;20.40;16.67;;;7.60;99.90;;;;;;4988500;28;20033;-54
2022/03/15 08:48:20;;;;;;;20.63;16.20;;;7.60;99.90;;;;;;4996087;28;20096;-52
2022/03/15 08:51:04;;;;;;;22.43;18.57;;;7.60;99.90;;;;;;4984931;28;20046;-53
2022/03/15 08:53:48;;;;;;;26.63;19.35;;;7.70;99.90;;;;;;4992846;28;20829;-54
2022/03/15 08:56:33;;;;;;;26.33;20.07;;;7.70;99.90;;;;;;4990746;28;20037;-51
2022/03/15 08:59:20;;;;;;;24.33;18.45;;;7.80;99.90;;;;;;4992224;28;20116;-52
2022/03/15 09:02:05;;;;;;;27.00;19.45;;;7.90;99.90;;;;;;4991798;28;20509;-50
2022/03/15 09:04:49;;;;;;;;;;;7.80;99.90;;;;;;4976602;28;20045;-53
2022/03/15 09:07:36;;;;;;;33.67;20.20;;;8.00;99.90;;;;;;4992712;28;19920;-52
2022/03/15 09:10:22;;;;;;;26.30;19.67;;;8.20;99.90;;;;;;4992090;28;20256;-55
2022/03/15 09:13:08;;;;;;;29.60;21.10;;;8.40;99.90;;;;;;4975911;28;20450;-54
2022/03/15 09:15:53;;;;;;;25.90;18.60;;;8.30;99.90;;;;;;4991803;28;20114;-54
2022/03/15 09:18:37;;;;;;;20.38;15.95;;;8.40;99.90;;;;;;4993781;28;20517;-50
2022/03/15 09:21:21;;;;;;;21.00;16.27;;;8.30;99.90;;;;;;4993683;28;20037;-53
2022/03/15 09:24:05;;;;;;;24.67;16.23;;;8.30;99.90;;;;;;4994001;28;20081;-52
2022/03/15 09:26:50;;;;;;;20.65;14.85;;;8.40;99.90;;;;;;4992044;28;20501;-52
2022/03/15 09:29:34;;;;;;;19.47;15.23;;;8.50;99.90;;;;;;4992919;28;20162;-55
2022/03/15 09:32:18;;;;;;;19.80;14.80;;;8.60;99.90;;;;;;4993693;28;20129;-56
2022/03/15 09:35:03;;;;;;;21.88;15.23;;;8.80;99.90;;;;;;4986028;28;20518;-52
2022/03/15 09:37:49;;;;;;;;;;;8.90;99.90;;;;;;4992890;28;20049;-50
2022/03/15 09:40:34;;;;;;;18.27;13.95;;;9.00;99.90;;;;;;4993121;28;20326;-54
2022/03/15 09:43:21;;;;;;;23.23;16.15;;;9.20;99.90;;;;;;4990758;28;20037;-52
2022/03/15 09:46:08;;;;;;;18.13;14.75;;;9.20;99.90;;;;;;4991512;28;20100;-55
2022/03/15 09:48:54;;;;;;;18.88;14.20;;;9.20;99.90;;;;;;4991968;28;20137;-52
2022/03/15 09:51:39;;;;;;;17.70;13.98;;;9.30;99.90;;;;;;4989499;28;20028;-51
2022/03/15 09:54:25;;;;;;;18.15;13.27;;;9.40;99.90;;;;;;4992499;28;20089;-53
2022/03/15 09:57:09;;;;;;;18.58;12.65;;;9.50;99.90;;;;;;4991754;28;20049;-50
2022/03/15 09:59:59;;;;;;;16.15;12.18;;;9.60;99.90;;;;;;4996013;28;20045;-53
2022/03/15 10:02:44;;;;;;;14.40;11.32;;;9.60;99.90;;;;;;4992824;28;20114;-50
2022/03/15 10:05:28;;;;;;;18.80;12.90;;;9.70;99.90;;;;;;4993583;28;20555;-50
2022/03/15 10:08:13;;;;;;;15.27;12.03;;;9.90;99.90;;;;;;4991828;28;20065;-52
2022/03/15 10:10:57;;;;;;;;;;;9.90;99.90;;;;;;4992929;28;20100;-49
2022/03/15 10:13:42;;;;;;;15.15;10.48;;;10.10;99.90;;;;;;4993014;28;19916;-53
2022/03/15 10:16:31;;;;;;;14.75;11.50;;;10.20;99.90;;;;;;4992961;28;20048;-54
2022/03/15 10:19:15;;;;;;;15.93;11.18;;;10.30;99.90;;;;;;4992859;28;20053;-53
2022/03/15 10:22:00;;;;;;;18.33;11.07;;;10.30;99.90;;;;;;4992091;28;20092;-51
2022/03/15 10:24:46;;;;;;;15.52;10.63;;;10.40;99.90;;;;;;4990378;28;20097;-51
2022/03/15 10:27:35;;;;;;;15.60;10.60;;;10.50;99.90;;;;;;4992313;28;20117;-54
2022/03/15 10:30:20;;;;;;;15.73;11.85;;;10.60;99.90;;;;;;4991765;28;20569;-48
2022/03/15 10:33:05;;;;;;;13.27;10.97;;;10.60;99.90;;;;;;4991925;28;20053;-54
2022/03/15 10:35:50;;;;;;;15.23;11.68;;;10.50;99.90;;;;;;4991874;28;20550;-51
2022/03/15 10:38:48;;;;;;;19.42;12.07;;;10.70;99.90;;;;;;4987876;28;20045;-51
2022/03/15 10:41:48;;;;;;;16.67;12.32;;;10.70;99.90;;;;;;4991806;28;20390;-51
2022/03/15 10:44:35;;;;;;;16.80;11.45;;;10.80;99.90;;;;;;4992183;28;20029;-51
2022/03/15 10:47:21;;;;;;;16.55;11.73;;;10.80;99.90;;;;;;4992396;28;20041;-52
2022/03/15 10:50:05;;;;;;;15.52;12.73;;;10.90;99.90;;;;;;4991558;28;20140;-53
2022/03/15 10:52:51;;;;;;;14.73;12.27;;;11.00;99.90;;;;;;4991923;28;20644;-51
2022/03/15 10:55:36;;;;;;;14.02;11.43;;;11.10;99.90;;;;;;4992533;28;20129;-53
2022/03/15 10:58:25;;;;;;;12.60;10.07;;;11.20;99.90;;;;;;4993188;28;20088;-54
2022/03/15 11:01:11;;;;;;;19.90;13.00;;;11.20;99.90;;;;;;4993233;28;20037;-55
2022/03/15 11:04:10;;;;;;;15.23;12.68;;;11.20;99.90;;;;;;4992392;28;20037;-52
2022/03/15 11:06:55;;;;;;;19.52;12.25;;;11.20;99.90;;;;;;4990476;28;20025;-55
2022/03/15 11:09:40;;;;;;;19.42;13.52;;;11.20;99.90;;;;;;4991388;28;20526;-52
2022/03/15 11:12:24;;;;;;;16.53;12.57;;;11.10;99.90;;;;;;5002940;28;20050;-50
2022/03/15 11:15:09;;;;;;;16.17;13.20;;;10.90;99.90;;;;;;4992429;28;20085;-55
2022/03/15 11:17:56;;;;;;;13.65;11.70;;;10.90;99.90;;;;;;4991805;28;20042;-52
2022/03/15 11:20:46;;;;;;;16.00;12.60;;;10.90;99.90;;;;;;4971448;28;20086;-50
2022/03/15 11:23:32;;;;;;;16.83;12.05;;;10.90;99.90;;;;;;4976081;28;20057;-53
2022/03/15 11:26:22;;;;;;;15.93;13.43;;;11.00;99.90;;;;;;4991819;28;20033;-54
2022/03/15 11:29:06;;;;;;;17.27;12.35;;;11.10;99.90;;;;;;4991467;28;20101;-54
2022/03/15 11:31:53;;;;;;;20.08;11.90;;;11.30;99.90;;;;;;4991588;28;20397;-55
2022/03/15 11:34:40;;;;;;;17.98;11.48;;;11.40;99.90;;;;;;4991416;28;20134;-53
2022/03/15 11:37:28;;;;;;;15.55;11.00;;;11.40;99.90;;;;;;4990887;28;20057;-52
2022/03/15 11:40:12;;;;;;;16.80;11.07;;;11.40;99.20;;;;;;4990043;28;20077;-55
2022/03/15 11:43:13;;;;;;;19.20;10.50;;;11.50;99.40;;;;;;4989703;28;20169;-55
2022/03/15 11:46:03;;;;;;;21.65;13.60;;;11.50;99.60;;;;;;4992046;28;20450;-51
2022/03/15 11:49:04;;;;;;;18.98;12.85;;;11.50;99.60;;;;;;4980608;28;20084;-55
2022/03/15 11:52:11;;;;;;;17.30;12.10;;;11.60;99.80;;;;;;4991341;28;20441;-51
2022/03/15 11:55:10;;;;;;;17.88;11.48;;;11.60;99.70;;;;;;4991524;28;20450;-50
2022/03/15 11:58:01;;;;;;;14.32;10.68;;;11.60;99.70;;;;;;4992032;28;20041;-51
2022/03/15 12:00:46;;;;;;;13.13;9.85;;;11.50;99.70;;;;;;4991658;28;20731;-50
2022/03/15 12:03:33;;;;;;;16.40;9.95;;;11.40;99.70;;;;;;4996878;28;20509;-52
2022/03/15 12:06:28;;;;;;;13.65;9.38;;;11.30;99.90;;;;;;4997428;28;20037;-49
2022/03/15 12:09:13;;;;;;;;;;;11.20;99.90;;;;;;4979229;28;20040;-54
2022/03/15 12:12:09;;;;;;;13.55;9.65;;;11.20;99.90;;;;;;4994748;28;19977;-52
2022/03/15 12:14:53;;;;;;;11.23;9.07;;;11.30;99.90;;;;;;4995089;28;20691;-53
2022/03/15 12:17:40;;;;;;;12.57;10.13;;;11.30;99.90;;;;;;4994614;28;20045;-52
2022/03/15 12:20:25;;;;;;;18.65;8.95;;;11.30;99.90;;;;;;4994062;28;20114;-55
2022/03/15 12:23:28;;;;;;;11.25;8.35;;;11.40;99.90;;;;;;4994356;28;20045;-52
2022/03/15 12:26:20;;;;;;;13.75;8.70;;;11.40;99.90;;;;;;4994653;28;20054;-55
2022/03/15 12:29:13;;;;;;;11.70;8.68;;;11.30;99.90;;;;;;4994573;28;20387;-55
2022/03/15 12:32:09;;;;;;;12.50;8.43;;;11.30;99.90;;;;;;4974823;28;20042;-53
2022/03/15 12:34:57;;;;;;;12.63;9.73;;;11.30;99.90;;;;;;4981488;28;20033;-53
2022/03/15 12:37:41;;;;;;;20.77;12.77;;;11.30;99.90;;;;;;4993384;28;20093;-54
2022/03/15 12:40:29;;;;;;;23.13;10.77;;;11.30;99.90;;;;;;4995194;28;20452;-53
2022/03/15 12:43:23;;;;;;;14.85;10.43;;;11.30;99.90;;;;;;4987278;28;20509;-52
2022/03/15 12:46:08;;;;;;;13.40;10.20;;;11.30;99.90;;;;;;4994487;28;20116;-53
2022/03/15 12:48:53;;;;;;;14.73;10.77;;;11.40;99.90;;;;;;4994949;28;20064;-53
2022/03/15 12:51:43;;;;;;;16.98;10.05;;;11.40;99.90;;;;;;4993973;28;20124;-50
2022/03/15 12:54:27;;;;;;;14.43;10.77;;;11.40;99.90;;;;;;4993963;28;20061;-51
2022/03/15 12:57:14;;;;;;;15.07;10.70;;;11.50;99.90;;;;;;4993797;28;20042;-52
2022/03/15 12:59:58;;;;;;;16.08;10.93;;;11.50;99.90;;;;;;4992919;28;20106;-51
2022/03/15 13:02:42;;;;;;;13.25;9.75;;;11.50;99.90;;;;;;5006483;28;20045;-55
2022/03/15 13:05:28;;;;;;;14.93;11.02;;;11.40;99.90;;;;;;4994320;28;20044;-54
2022/03/15 13:08:15;;;;;;;15.10;11.05;;;11.40;99.90;;;;;;4993331;28;20065;-54
2022/03/15 13:11:05;;;;;;;20.92;11.25;;;11.50;99.90;;;;;;4993991;28;20112;-49
2022/03/15 13:13:49;;;;;;;13.95;10.85;;;11.40;99.90;;;;;;4993261;28;20041;-52
2022/03/15 13:16:34;;;;;;;16.90;11.20;;;11.40;99.90;;;;;;4993632;28;20068;-53
2022/03/15 13:19:47;;;;;;;15.48;10.00;;;11.40;99.90;;;;;;4993677;28;20073;-53
2022/03/15 13:22:33;;;;;;;19.77;10.68;;;11.30;99.90;;;;;;4993113;28;20511;-51
2022/03/15 13:25:17;;;;;;;14.80;11.02;;;11.20;99.90;;;;;;4993873;28;20097;-49
2022/03/15 13:28:07;;;;;;;20.43;10.57;;;11.20;99.90;;;;;;4992546;28;20395;-56
2022/03/15 13:30:55;;;;;;;20.95;10.40;;;11.20;99.90;;;;;;4993370;28;20385;-54
2022/03/15 13:33:46;;;;;;;13.77;9.43;;;11.20;99.90;;;;;;4993213;28;20505;-52
2022/03/15 13:36:33;;;;;;;15.57;10.30;;;11.20;99.90;;;;;;4992718;28;20045;-53
2022/03/15 13:39:20;;;;;;;25.63;11.45;;;11.20;99.90;;;;;;4993115;28;20076;-52
2022/03/15 13:42:09;;;;;;;16.33;9.95;;;11.20;99.90;;;;;;4981613;28;20074;-55
2022/03/15 13:44:54;;;;;;;15.27;11.57;;;11.10;99.90;;;;;;4973622;28;20182;-52
2022/03/15 13:47:50;;;;;;;13.15;11.75;;;11.10;99.90;;;;;;4990668;28;20041;-54
2022/03/15 13:50:35;;;;;;;19.23;13.05;;;11.10;99.90;;;;;;4973808;28;20093;-50
2022/03/15 13:53:19;;;;;;;15.35;11.63;;;11.10;99.90;;;;;;4989374;28;20402;-51
2022/03/15 13:56:19;;;;;;;16.05;11.85;;;11.00;99.90;;;;;;4993076;28;20462;-48
2022/03/15 13:59:08;;;;;;;21.98;12.38;;;11.00;99.90;;;;;;5005650;28;20508;-55
2022/03/15 14:01:59;;;;;;;13.75;11.82;;;10.90;99.90;;;;;;4991442;28;20037;-53
2022/03/15 14:04:43;;;;;;;17.73;11.88;;;11.00;99.90;;;;;;4992533;28;20084;-54
2022/03/15 14:07:28;;;;;;;18.50;10.70;;;10.90;99.90;;;;;;4992965;28;20550;-50
2022/03/15 14:10:19;;;;;;;;;;;11.00;99.90;;;;;;4992815;28;20037;-53
2022/03/15 14:13:06;;;;;;;15.07;9.55;;;10.90;99.90;;;;;;4992313;28;19913;-54
2022/03/15 14:15:53;;;;;;;12.25;9.57;;;10.80;99.90;;;;;;4992604;28;20089;-53